sensor_id;sensor_type;location;lat;lon;timestamp;pressure;altitude;pressure_sealevel;temperature;humidity
43770;BME280;6597;52.218;9.882;2023-07-09T00:00:11;101107.03;;;18.94;89.39
43770;BME280;6597;52.218;9.882;2023-07-09T00:02:39;101111.81;;;18.89;90.02
43770;BME280;6597;52.218;9.882;2023-07-09T00:05:11;101108.47;;;18.85;89.68
43770;BME280;6597;52.218;9.882;2023-07-09T00:07:38;101105.25;;;18.80;89.63
43770;BME280;6597;52.218;9.882;2023-07-09T00:10:13;101110.47;;;18.82;89.53
43770;BME280;6597;52.218;9.882;2023-07-09T00:12:40;101112.16;;;18.83;88.85
43770;BME280;6597;52.218;9.882;2023-07-09T00:15:09;101110.66;;;18.79;88.69
43770;BME280;6597;52.218;9.882;2023-07-09T00:17:36;101108.28;;;18.74;89.07
43770;BME280;6597;52.218;9.882;2023-07-09T00:20:06;101115.53;;;18.72;89.58
43770;BME280;6597;52.218;9.882;2023-07-09T00:22:39;101115.53;;;18.72;89.51
43770;BME280;6597;52.218;9.882;2023-07-09T00:25:09;101113.06;;;18.69;89.73
43770;BME280;6597;52.218;9.882;2023-07-09T00:27:39;101117.63;;;18.67;89.40
43770;BME280;6597;52.218;9.882;2023-07-09T00:30:08;101113.06;;;18.55;88.88
43770;BME280;6597;52.218;9.882;2023-07-09T00:32:40;101123.75;;;18.53;88.76
43770;BME280;6597;52.218;9.882;2023-07-09T00:35:09;101117.69;;;18.51;88.61
43770;BME280;6597;52.218;9.882;2023-07-09T00:37:38;101125.66;;;18.51;88.55
43770;BME280;6597;52.218;9.882;2023-07-09T00:40:10;101114.25;;;18.49;88.74
43770;BME280;6597;52.218;9.882;2023-07-09T00:42:43;101117.97;;;18.47;88.98
43770;BME280;6597;52.218;9.882;2023-07-09T00:45:18;101113.88;;;18.41;88.78
43770;BME280;6597;52.218;9.882;2023-07-09T00:47:48;101111.72;;;18.33;89.02
43770;BME280;6597;52.218;9.882;2023-07-09T00:50:27;101105.75;;;18.30;89.43
43770;BME280;6597;52.218;9.882;2023-07-09T00:52:59;101108.50;;;18.28;89.71
43770;BME280;6597;52.218;9.882;2023-07-09T00:55:34;101107.63;;;18.28;89.66
43770;BME280;6597;52.218;9.882;2023-07-09T00:58:06;101111.44;;;18.24;89.92
43770;BME280;6597;52.218;9.882;2023-07-09T01:00:36;101104.66;;;18.18;90.31
43770;BME280;6597;52.218;9.882;2023-07-09T01:03:15;101099.72;;;18.12;90.44
43770;BME280;6597;52.218;9.882;2023-07-09T01:05:45;101103.53;;;18.08;91.03
43770;BME280;6597;52.218;9.882;2023-07-09T01:08:19;101107.41;;;18.02;91.58
43770;BME280;6597;52.218;9.882;2023-07-09T01:10:46;101101.44;;;17.99;91.15
43770;BME280;6597;52.218;9.882;2023-07-09T01:13:13;101104.47;;;17.93;90.65
43770;BME280;6597;52.218;9.882;2023-07-09T01:15:41;101102.75;;;17.92;90.70
43770;BME280;6597;52.218;9.882;2023-07-09T01:18:07;101097.44;;;17.92;91.10
43770;BME280;6597;52.218;9.882;2023-07-09T01:20:38;101092.91;;;17.94;91.15
43770;BME280;6597;52.218;9.882;2023-07-09T01:23:07;101093.84;;;17.93;90.77
43770;BME280;6597;52.218;9.882;2023-07-09T01:25:43;101092.03;;;17.93;90.91
43770;BME280;6597;52.218;9.882;2023-07-09T01:28:10;101092.91;;;17.94;91.40
43770;BME280;6597;52.218;9.882;2023-07-09T01:30:39;101094.69;;;17.93;91.29
43770;BME280;6597;52.218;9.882;2023-07-09T01:33:06;101092.31;;;17.89;91.50
43770;BME280;6597;52.218;9.882;2023-07-09T01:35:35;101089.06;;;17.84;91.54
43770;BME280;6597;52.218;9.882;2023-07-09T01:38:02;101096.56;;;17.77;91.84
43770;BME280;6597;52.218;9.882;2023-07-09T01:40:36;101097.88;;;17.70;92.00
43770;BME280;6597;52.218;9.882;2023-07-09T01:43:03;101100.00;;;17.63;92.21
43770;BME280;6597;52.218;9.882;2023-07-09T01:45:32;101103.78;;;17.59;92.43
43770;BME280;6597;52.218;9.882;2023-07-09T01:48:00;101106.63;;;17.56;92.80
43770;BME280;6597;52.218;9.882;2023-07-09T01:50:27;101099.34;;;17.60;92.40
43770;BME280;6597;52.218;9.882;2023-07-09T01:52:56;101098.66;;;17.56;92.63
43770;BME280;6597;52.218;9.882;2023-07-09T01:55:23;101090.00;;;17.53;92.48
43770;BME280;6597;52.218;9.882;2023-07-09T01:57:51;101088.38;;;17.50;92.64
43770;BME280;6597;52.218;9.882;2023-07-09T02:00:18;101093.09;;;17.45;92.79
43770;BME280;6597;52.218;9.882;2023-07-09T02:02:47;101106.63;;;17.40;92.75
43770;BME280;6597;52.218;9.882;2023-07-09T02:05:16;101105.13;;;17.36;92.91
43770;BME280;6597;52.218;9.882;2023-07-09T02:07:43;101096.84;;;17.27;93.32
43770;BME280;6597;52.218;9.882;2023-07-09T02:10:11;101097.59;;;17.29;93.43
43770;BME280;6597;52.218;9.882;2023-07-09T02:12:38;101100.34;;;17.27;93.46
43770;BME280;6597;52.218;9.882;2023-07-09T02:15:07;101101.53;;;17.22;93.96
43770;BME280;6597;52.218;9.882;2023-07-09T02:17:34;101100.75;;;17.20;93.90
43770;BME280;6597;52.218;9.882;2023-07-09T02:20:01;101105.28;;;17.18;94.15
43770;BME280;6597;52.218;9.882;2023-07-09T02:22:29;101099.50;;;17.11;94.31
43770;BME280;6597;52.218;9.882;2023-07-09T02:24:57;101103.25;;;17.07;94.48
43770;BME280;6597;52.218;9.882;2023-07-09T02:27:24;101102.59;;;17.03;94.91
43770;BME280;6597;52.218;9.882;2023-07-09T02:29:50;101099.34;;;16.98;95.35
43770;BME280;6597;52.218;9.882;2023-07-09T02:32:20;101105.75;;;16.94;95.95
43770;BME280;6597;52.218;9.882;2023-07-09T02:34:48;101103.03;;;16.96;96.01
43770;BME280;6597;52.218;9.882;2023-07-09T02:37:19;101108.59;;;16.91;96.56
43770;BME280;6597;52.218;9.882;2023-07-09T02:39:45;101113.25;;;16.86;96.44
43770;BME280;6597;52.218;9.882;2023-07-09T02:42:13;101111.81;;;16.80;96.90
43770;BME280;6597;52.218;9.882;2023-07-09T02:44:40;101099.50;;;16.79;97.06
43770;BME280;6597;52.218;9.882;2023-07-09T02:47:08;101110.19;;;16.78;98.10
43770;BME280;6597;52.218;9.882;2023-07-09T02:49:36;101101.13;;;16.82;97.73
43770;BME280;6597;52.218;9.882;2023-07-09T02:52:03;101103.00;;;16.80;97.69
43770;BME280;6597;52.218;9.882;2023-07-09T02:54:30;101102.06;;;16.81;97.83
43770;BME280;6597;52.218;9.882;2023-07-09T02:56:57;101093.84;;;16.70;97.61
43770;BME280;6597;52.218;9.882;2023-07-09T02:59:24;101099.16;;;16.70;97.83
43770;BME280;6597;52.218;9.882;2023-07-09T03:01:52;101104.63;;;16.67;98.12
43770;BME280;6597;52.218;9.882;2023-07-09T03:04:19;101105.50;;;16.67;98.21
43770;BME280;6597;52.218;9.882;2023-07-09T03:06:47;101102.28;;;16.61;98.48
43770;BME280;6597;52.218;9.882;2023-07-09T03:09:14;101094.66;;;16.55;98.70
43770;BME280;6597;52.218;9.882;2023-07-09T03:11:40;101101.91;;;16.51;98.87
43770;BME280;6597;52.218;9.882;2023-07-09T03:14:08;101105.75;;;16.45;99.07
43770;BME280;6597;52.218;9.882;2023-07-09T03:16:35;101108.56;;;16.42;98.99
43770;BME280;6597;52.218;9.882;2023-07-09T03:19:02;101111.06;;;16.45;98.89
43770;BME280;6597;52.218;9.882;2023-07-09T03:21:30;101110.28;;;16.43;98.74
43770;BME280;6597;52.218;9.882;2023-07-09T03:23:58;101112.94;;;16.43;98.36
43770;BME280;6597;52.218;9.882;2023-07-09T03:26:25;101114.81;;;16.41;98.56
43770;BME280;6597;52.218;9.882;2023-07-09T03:28:52;101113.09;;;16.40;98.83
43770;BME280;6597;52.218;9.882;2023-07-09T03:31:19;101104.38;;;16.38;98.90
43770;BME280;6597;52.218;9.882;2023-07-09T03:33:46;101107.88;;;16.39;99.57
43770;BME280;6597;52.218;9.882;2023-07-09T03:36:13;101104.13;;;16.43;99.51
43770;BME280;6597;52.218;9.882;2023-07-09T03:38:40;101112.06;;;16.43;100.00
43770;BME280;6597;52.218;9.882;2023-07-09T03:41:07;101118.84;;;16.48;100.00
43770;BME280;6597;52.218;9.882;2023-07-09T03:43:34;101128.31;;;16.53;99.84
43770;BME280;6597;52.218;9.882;2023-07-09T03:46:00;101122.16;;;16.52;99.57
43770;BME280;6597;52.218;9.882;2023-07-09T03:48:27;101126.53;;;16.53;99.57
43770;BME280;6597;52.218;9.882;2023-07-09T03:50:54;101124.75;;;16.54;100.00
43770;BME280;6597;52.218;9.882;2023-07-09T03:53:21;101122.84;;;16.56;100.00
43770;BME280;6597;52.218;9.882;2023-07-09T03:55:52;101125.28;;;16.60;99.93
43770;BME280;6597;52.218;9.882;2023-07-09T03:58:20;101128.53;;;16.65;99.92
43770;BME280;6597;52.218;9.882;2023-07-09T04:00:47;101128.22;;;16.71;99.32
43770;BME280;6597;52.218;9.882;2023-07-09T04:03:14;101132.44;;;16.75;99.19
43770;BME280;6597;52.218;9.882;2023-07-09T04:05:40;101133.88;;;16.81;98.51
43770;BME280;6597;52.218;9.882;2023-07-09T04:08:07;101133.53;;;16.87;97.75
43770;BME280;6597;52.218;9.882;2023-07-09T04:10:33;101131.66;;;16.89;97.63
43770;BME280;6597;52.218;9.882;2023-07-09T04:13:00;101129.81;;;16.91;97.66
43770;BME280;6597;52.218;9.882;2023-07-09T04:15:28;101132.28;;;16.94;97.44
43770;BME280;6597;52.218;9.882;2023-07-09T04:17:55;101125.78;;;17.00;97.00
43770;BME280;6597;52.218;9.882;2023-07-09T04:20:22;101123.81;;;17.03;96.44
43770;BME280;6597;52.218;9.882;2023-07-09T04:22:48;101119.19;;;17.07;96.40
43770;BME280;6597;52.218;9.882;2023-07-09T04:25:15;101123.88;;;17.18;96.19
43770;BME280;6597;52.218;9.882;2023-07-09T04:27:42;101123.47;;;17.25;95.88
43770;BME280;6597;52.218;9.882;2023-07-09T04:30:11;101130.13;;;17.32;95.76
43770;BME280;6597;52.218;9.882;2023-07-09T04:32:40;101122.75;;;17.37;95.24
43770;BME280;6597;52.218;9.882;2023-07-09T04:35:08;101117.94;;;17.44;95.11
43770;BME280;6597;52.218;9.882;2023-07-09T04:37:36;101123.81;;;17.49;94.33
43770;BME280;6597;52.218;9.882;2023-07-09T04:40:04;101128.09;;;17.52;94.55
43770;BME280;6597;52.218;9.882;2023-07-09T04:42:32;101125.34;;;17.53;94.09
43770;BME280;6597;52.218;9.882;2023-07-09T04:44:59;101136.72;;;17.55;94.33
43770;BME280;6597;52.218;9.882;2023-07-09T04:47:25;101132.91;;;17.61;94.15
43770;BME280;6597;52.218;9.882;2023-07-09T04:49:53;101129.91;;;17.67;93.80
43770;BME280;6597;52.218;9.882;2023-07-09T04:52:20;101138.53;;;17.70;93.89
43770;BME280;6597;52.218;9.882;2023-07-09T04:54:47;101133.72;;;17.77;93.65
43770;BME280;6597;52.218;9.882;2023-07-09T04:57:16;101131.91;;;17.78;93.68
43770;BME280;6597;52.218;9.882;2023-07-09T04:59:42;101135.16;;;17.83;93.57
43770;BME280;6597;52.218;9.882;2023-07-09T05:02:09;101135.69;;;17.89;93.29
43770;BME280;6597;52.218;9.882;2023-07-09T05:04:35;101135.59;;;17.91;92.85
43770;BME280;6597;52.218;9.882;2023-07-09T05:07:04;101130.94;;;17.94;92.39
43770;BME280;6597;52.218;9.882;2023-07-09T05:09:31;101134.94;;;18.01;91.29
43770;BME280;6597;52.218;9.882;2023-07-09T05:11:57;101137.31;;;18.06;91.27
43770;BME280;6597;52.218;9.882;2023-07-09T05:14:25;101137.97;;;18.10;92.31
43770;BME280;6597;52.218;9.882;2023-07-09T05:16:52;101137.69;;;18.14;93.14
43770;BME280;6597;52.218;9.882;2023-07-09T05:19:19;101139.22;;;18.18;93.50
43770;BME280;6597;52.218;9.882;2023-07-09T05:21:45;101135.50;;;18.21;93.50
43770;BME280;6597;52.218;9.882;2023-07-09T05:24:13;101135.34;;;18.24;93.66
43770;BME280;6597;52.218;9.882;2023-07-09T05:26:40;101141.13;;;18.30;93.64
43770;BME280;6597;52.218;9.882;2023-07-09T05:29:06;101136.19;;;18.39;93.65
43770;BME280;6597;52.218;9.882;2023-07-09T05:31:33;101137.44;;;18.47;93.46
43770;BME280;6597;52.218;9.882;2023-07-09T05:34:01;101133.72;;;18.50;93.56
43770;BME280;6597;52.218;9.882;2023-07-09T05:36:28;101136.88;;;18.56;94.78
43770;BME280;6597;52.218;9.882;2023-07-09T05:38:55;101141.75;;;18.64;94.16
43770;BME280;6597;52.218;9.882;2023-07-09T05:41:23;101135.28;;;18.68;94.84
43770;BME280;6597;52.218;9.882;2023-07-09T05:43:50;101143.34;;;18.81;95.10
43770;BME280;6597;52.218;9.882;2023-07-09T05:46:16;101138.97;;;18.94;95.35
43770;BME280;6597;52.218;9.882;2023-07-09T05:48:43;101149.75;;;19.05;95.14
43770;BME280;6597;52.218;9.882;2023-07-09T05:51:09;101134.69;;;19.18;94.54
43770;BME280;6597;52.218;9.882;2023-07-09T05:53:36;101140.00;;;19.33;94.09
43770;BME280;6597;52.218;9.882;2023-07-09T05:56:02;101148.03;;;19.45;93.26
43770;BME280;6597;52.218;9.882;2023-07-09T05:58:30;101147.06;;;19.61;92.82
43770;BME280;6597;52.218;9.882;2023-07-09T06:00:57;101147.19;;;19.72;92.23
43770;BME280;6597;52.218;9.882;2023-07-09T06:03:25;101151.59;;;19.85;91.48
43770;BME280;6597;52.218;9.882;2023-07-09T06:05:52;101147.34;;;19.96;86.75
43770;BME280;6597;52.218;9.882;2023-07-09T06:08:23;101150.25;;;20.18;82.70
43770;BME280;6597;52.218;9.882;2023-07-09T06:10:59;101148.13;;;20.36;78.94
43770;BME280;6597;52.218;9.882;2023-07-09T06:13:28;101153.38;;;20.50;77.14
43770;BME280;6597;52.218;9.882;2023-07-09T06:15:57;101156.44;;;20.69;77.26
43770;BME280;6597;52.218;9.882;2023-07-09T06:18:25;101149.19;;;20.84;76.77
43770;BME280;6597;52.218;9.882;2023-07-09T06:20:55;101155.09;;;21.00;75.18
43770;BME280;6597;52.218;9.882;2023-07-09T06:23:22;101148.56;;;21.17;74.92
43770;BME280;6597;52.218;9.882;2023-07-09T06:25:50;101154.38;;;21.35;73.73
43770;BME280;6597;52.218;9.882;2023-07-09T06:28:19;101153.88;;;21.54;73.94
43770;BME280;6597;52.218;9.882;2023-07-09T06:30:47;101149.56;;;21.75;70.04
43770;BME280;6597;52.218;9.882;2023-07-09T06:33:16;101149.22;;;22.03;70.10
43770;BME280;6597;52.218;9.882;2023-07-09T06:35:46;101150.13;;;22.26;70.35
43770;BME280;6597;52.218;9.882;2023-07-09T06:38:14;101148.06;;;22.41;69.42
43770;BME280;6597;52.218;9.882;2023-07-09T06:40:40;101150.03;;;22.50;69.35
43770;BME280;6597;52.218;9.882;2023-07-09T06:43:07;101153.19;;;22.55;68.33
43770;BME280;6597;52.218;9.882;2023-07-09T06:45:37;101153.41;;;22.75;69.72
43770;BME280;6597;52.218;9.882;2023-07-09T06:48:04;101152.47;;;22.98;67.93
43770;BME280;6597;52.218;9.882;2023-07-09T06:50:34;101148.69;;;23.12;66.79
43770;BME280;6597;52.218;9.882;2023-07-09T06:53:01;101150.81;;;23.29;66.92
43770;BME280;6597;52.218;9.882;2023-07-09T06:55:27;101146.03;;;23.44;67.17
43770;BME280;6597;52.218;9.882;2023-07-09T06:57:54;101144.78;;;23.59;67.18
43770;BME280;6597;52.218;9.882;2023-07-09T07:00:21;101147.09;;;23.84;67.32
43770;BME280;6597;52.218;9.882;2023-07-09T07:02:47;101153.31;;;24.06;67.64
43770;BME280;6597;52.218;9.882;2023-07-09T07:05:14;101141.50;;;24.29;67.53
43770;BME280;6597;52.218;9.882;2023-07-09T07:07:42;101159.41;;;24.49;64.86
43770;BME280;6597;52.218;9.882;2023-07-09T07:10:09;101157.50;;;24.71;62.85
43770;BME280;6597;52.218;9.882;2023-07-09T07:12:41;101153.72;;;24.73;61.81
43770;BME280;6597;52.218;9.882;2023-07-09T07:15:09;101146.25;;;24.77;63.21
43770;BME280;6597;52.218;9.882;2023-07-09T07:17:36;101152.78;;;24.94;63.45
43770;BME280;6597;52.218;9.882;2023-07-09T07:20:03;101142.56;;;25.08;62.01
43770;BME280;6597;52.218;9.882;2023-07-09T07:22:29;101148.22;;;25.25;61.71
43770;BME280;6597;52.218;9.882;2023-07-09T07:24:57;101155.78;;;25.40;61.35
43770;BME280;6597;52.218;9.882;2023-07-09T07:27:24;101151.09;;;25.52;60.80
43770;BME280;6597;52.218;9.882;2023-07-09T07:29:51;101149.97;;;25.64;60.16
43770;BME280;6597;52.218;9.882;2023-07-09T07:32:17;101152.41;;;25.77;59.84
43770;BME280;6597;52.218;9.882;2023-07-09T07:34:44;101153.38;;;25.86;59.56
43770;BME280;6597;52.218;9.882;2023-07-09T07:37:10;101157.75;;;25.96;58.61
43770;BME280;6597;52.218;9.882;2023-07-09T07:39:37;101150.09;;;26.01;58.13
43770;BME280;6597;52.218;9.882;2023-07-09T07:42:05;101150.81;;;26.13;58.54
43770;BME280;6597;52.218;9.882;2023-07-09T07:44:32;101148.63;;;26.26;59.57
43770;BME280;6597;52.218;9.882;2023-07-09T07:46:58;101143.38;;;26.44;57.53
43770;BME280;6597;52.218;9.882;2023-07-09T07:49:25;101147.13;;;26.61;60.40
43770;BME280;6597;52.218;9.882;2023-07-09T07:51:52;101135.75;;;26.77;58.49
43770;BME280;6597;52.218;9.882;2023-07-09T07:54:18;101140.22;;;26.86;57.11
43770;BME280;6597;52.218;9.882;2023-07-09T07:56:45;101137.19;;;26.98;57.48
43770;BME280;6597;52.218;9.882;2023-07-09T07:59:13;101138.72;;;27.11;56.61
43770;BME280;6597;52.218;9.882;2023-07-09T08:01:39;101138.00;;;27.26;56.85
43770;BME280;6597;52.218;9.882;2023-07-09T08:04:06;101144.06;;;27.38;55.39
43770;BME280;6597;52.218;9.882;2023-07-09T08:06:32;101142.50;;;27.53;53.79
43770;BME280;6597;52.218;9.882;2023-07-09T08:08:59;101144.13;;;27.46;53.21
43770;BME280;6597;52.218;9.882;2023-07-09T08:11:25;101146.03;;;27.54;54.50
43770;BME280;6597;52.218;9.882;2023-07-09T08:13:53;101151.38;;;27.64;52.16
43770;BME280;6597;52.218;9.882;2023-07-09T08:16:21;101143.84;;;27.67;53.40
43770;BME280;6597;52.218;9.882;2023-07-09T08:18:47;101143.75;;;27.77;52.70
43770;BME280;6597;52.218;9.882;2023-07-09T08:21:14;101140.97;;;27.86;50.57
43770;BME280;6597;52.218;9.882;2023-07-09T08:23:41;101144.72;;;27.94;50.26
43770;BME280;6597;52.218;9.882;2023-07-09T08:26:07;101139.00;;;28.14;49.76
43770;BME280;6597;52.218;9.882;2023-07-09T08:28:34;101136.81;;;28.36;50.30
43770;BME280;6597;52.218;9.882;2023-07-09T08:31:01;101134.53;;;28.57;49.43
43770;BME280;6597;52.218;9.882;2023-07-09T08:33:30;101126.53;;;28.81;49.23
43770;BME280;6597;52.218;9.882;2023-07-09T08:35:56;101129.69;;;29.03;48.76
43770;BME280;6597;52.218;9.882;2023-07-09T08:38:23;101128.53;;;29.22;47.61
43770;BME280;6597;52.218;9.882;2023-07-09T08:40:57;101131.94;;;29.24;46.37
43770;BME280;6597;52.218;9.882;2023-07-09T08:43:32;101127.69;;;29.21;47.00
43770;BME280;6597;52.218;9.882;2023-07-09T08:46:12;101133.84;;;29.39;47.19
43770;BME280;6597;52.218;9.882;2023-07-09T08:48:45;101128.78;;;29.45;46.89
43770;BME280;6597;52.218;9.882;2023-07-09T08:51:17;101124.91;;;29.55;46.47
43770;BME280;6597;52.218;9.882;2023-07-09T08:53:49;101113.44;;;29.69;46.59
43770;BME280;6597;52.218;9.882;2023-07-09T08:56:17;101124.59;;;29.74;46.14
43770;BME280;6597;52.218;9.882;2023-07-09T08:58:45;101123.06;;;29.72;46.72
43770;BME280;6597;52.218;9.882;2023-07-09T09:01:17;101115.44;;;29.92;47.14
43770;BME280;6597;52.218;9.882;2023-07-09T09:03:48;101124.56;;;29.91;46.82
43770;BME280;6597;52.218;9.882;2023-07-09T09:06:19;101125.25;;;29.85;45.85
43770;BME280;6597;52.218;9.882;2023-07-09T09:08:54;101122.69;;;29.91;46.77
43770;BME280;6597;52.218;9.882;2023-07-09T09:11:29;101128.16;;;30.08;45.53
43770;BME280;6597;52.218;9.882;2023-07-09T09:14:01;101127.78;;;30.27;44.92
43770;BME280;6597;52.218;9.882;2023-07-09T09:16:30;101121.84;;;30.31;45.00
43770;BME280;6597;52.218;9.882;2023-07-09T09:19:00;101120.63;;;30.42;46.79
43770;BME280;6597;52.218;9.882;2023-07-09T09:21:31;101122.25;;;30.68;45.58
43770;BME280;6597;52.218;9.882;2023-07-09T09:24:09;101125.53;;;30.86;45.03
43770;BME280;6597;52.218;9.882;2023-07-09T09:26:41;101108.19;;;31.03;43.71
43770;BME280;6597;52.218;9.882;2023-07-09T09:29:10;101117.81;;;31.06;44.30
43770;BME280;6597;52.218;9.882;2023-07-09T09:31:37;101114.19;;;31.21;43.84
43770;BME280;6597;52.218;9.882;2023-07-09T09:34:17;101115.28;;;31.35;43.75
43770;BME280;6597;52.218;9.882;2023-07-09T09:36:44;101111.19;;;31.39;42.92
43770;BME280;6597;52.218;9.882;2023-07-09T09:39:10;101114.38;;;31.43;42.55
43770;BME280;6597;52.218;9.882;2023-07-09T09:41:37;101113.91;;;31.39;42.66
43770;BME280;6597;52.218;9.882;2023-07-09T09:44:05;101118.78;;;31.44;42.58
43770;BME280;6597;52.218;9.882;2023-07-09T09:46:32;101124.56;;;31.41;42.93
43770;BME280;6597;52.218;9.882;2023-07-09T09:49:02;101122.34;;;31.44;44.13
43770;BME280;6597;52.218;9.882;2023-07-09T09:51:33;101119.25;;;31.47;41.99
43770;BME280;6597;52.218;9.882;2023-07-09T09:54:02;101124.22;;;31.67;42.49
43770;BME280;6597;52.218;9.882;2023-07-09T09:56:30;101121.09;;;31.78;41.60
43770;BME280;6597;52.218;9.882;2023-07-09T09:58:57;101134.09;;;31.82;40.35
43770;BME280;6597;52.218;9.882;2023-07-09T10:01:27;101129.22;;;31.78;41.75
43770;BME280;6597;52.218;9.882;2023-07-09T10:03:56;101131.81;;;31.94;39.82
43770;BME280;6597;52.218;9.882;2023-07-09T10:06:33;101131.06;;;32.00;40.23
43770;BME280;6597;52.218;9.882;2023-07-09T10:09:05;101124.53;;;32.09;39.98
43770;BME280;6597;52.218;9.882;2023-07-09T10:11:43;101126.31;;;32.17;38.64
43770;BME280;6597;52.218;9.882;2023-07-09T10:14:27;101127.66;;;32.36;39.19
43770;BME280;6597;52.218;9.882;2023-07-09T10:17:00;101123.75;;;32.53;39.28
43770;BME280;6597;52.218;9.882;2023-07-09T10:19:35;101127.78;;;32.57;38.14
43770;BME280;6597;52.218;9.882;2023-07-09T10:22:10;101122.22;;;32.50;38.62
43770;BME280;6597;52.218;9.882;2023-07-09T10:24:47;101121.03;;;32.53;38.16
43770;BME280;6597;52.218;9.882;2023-07-09T10:27:20;101115.31;;;32.63;40.26
43770;BME280;6597;52.218;9.882;2023-07-09T10:30:14;101118.38;;;32.74;38.71
43770;BME280;6597;52.218;9.882;2023-07-09T10:32:51;101116.69;;;32.73;38.37
43770;BME280;6597;52.218;9.882;2023-07-09T10:35:25;101119.00;;;32.76;38.04
43770;BME280;6597;52.218;9.882;2023-07-09T10:38:10;101122.69;;;32.69;39.08
43770;BME280;6597;52.218;9.882;2023-07-09T10:40:42;101107.94;;;32.78;37.48
43770;BME280;6597;52.218;9.882;2023-07-09T10:43:14;101113.22;;;32.94;37.54
43770;BME280;6597;52.218;9.882;2023-07-09T10:45:45;101111.16;;;32.96;37.63
43770;BME280;6597;52.218;9.882;2023-07-09T10:48:16;101110.63;;;33.07;36.27
43770;BME280;6597;52.218;9.882;2023-07-09T10:50:47;101109.41;;;33.10;37.55
43770;BME280;6597;52.218;9.882;2023-07-09T10:53:28;101104.34;;;33.07;36.04
43770;BME280;6597;52.218;9.882;2023-07-09T10:55:59;101105.06;;;33.16;36.80
43770;BME280;6597;52.218;9.882;2023-07-09T10:58:32;101101.41;;;33.45;36.98
43770;BME280;6597;52.218;9.882;2023-07-09T11:01:01;101103.63;;;33.56;36.86
43770;BME280;6597;52.218;9.882;2023-07-09T11:03:36;101099.72;;;33.65;39.54
43770;BME280;6597;52.218;9.882;2023-07-09T11:06:09;101096.63;;;33.68;37.93
43770;BME280;6597;52.218;9.882;2023-07-09T11:08:42;101096.56;;;33.61;36.45
43770;BME280;6597;52.218;9.882;2023-07-09T11:11:13;101104.53;;;33.84;37.55
43770;BME280;6597;52.218;9.882;2023-07-09T11:13:46;101096.63;;;33.89;36.59
43770;BME280;6597;52.218;9.882;2023-07-09T11:16:28;101100.13;;;33.83;35.76
43770;BME280;6597;52.218;9.882;2023-07-09T11:18:58;101096.63;;;33.68;35.69
43770;BME280;6597;52.218;9.882;2023-07-09T11:21:25;101106.66;;;33.89;36.97
43770;BME280;6597;52.218;9.882;2023-07-09T11:23:55;101089.59;;;34.08;37.96
43770;BME280;6597;52.218;9.882;2023-07-09T11:26:24;101093.03;;;34.17;37.45
43770;BME280;6597;52.218;9.882;2023-07-09T11:28:52;101087.22;;;34.26;35.17
43770;BME280;6597;52.218;9.882;2023-07-09T11:31:24;101091.94;;;34.46;35.05
43770;BME280;6597;52.218;9.882;2023-07-09T11:34:03;101091.56;;;34.49;36.92
43770;BME280;6597;52.218;9.882;2023-07-09T11:36:35;101078.19;;;34.60;36.86
43770;BME280;6597;52.218;9.882;2023-07-09T11:39:19;101072.97;;;34.72;36.34
43770;BME280;6597;52.218;9.882;2023-07-09T11:41:46;101076.41;;;34.81;36.39
43770;BME280;6597;52.218;9.882;2023-07-09T11:44:16;101070.66;;;34.69;34.92
43770;BME280;6597;52.218;9.882;2023-07-09T11:46:51;101072.50;;;34.55;36.28
43770;BME280;6597;52.218;9.882;2023-07-09T11:49:21;101073.91;;;34.45;35.30
43770;BME280;6597;52.218;9.882;2023-07-09T11:51:53;101069.16;;;34.19;35.55
43770;BME280;6597;52.218;9.882;2023-07-09T11:54:21;101077.03;;;34.07;35.47
43770;BME280;6597;52.218;9.882;2023-07-09T11:56:56;101066.69;;;34.30;36.25
43770;BME280;6597;52.218;9.882;2023-07-09T11:59:23;101068.00;;;34.35;35.26
43770;BME280;6597;52.218;9.882;2023-07-09T12:01:51;101071.38;;;34.43;35.29
43770;BME280;6597;52.218;9.882;2023-07-09T12:04:22;101058.69;;;34.57;35.40
43770;BME280;6597;52.218;9.882;2023-07-09T12:06:51;101057.66;;;34.71;34.40
43770;BME280;6597;52.218;9.882;2023-07-09T12:09:24;101069.44;;;34.78;34.84
43770;BME280;6597;52.218;9.882;2023-07-09T12:11:51;101065.53;;;34.87;34.84
43770;BME280;6597;52.218;9.882;2023-07-09T12:14:20;101066.41;;;35.01;34.20
43770;BME280;6597;52.218;9.882;2023-07-09T12:16:49;101065.34;;;35.09;34.73
43770;BME280;6597;52.218;9.882;2023-07-09T12:19:17;101067.06;;;35.16;35.18
43770;BME280;6597;52.218;9.882;2023-07-09T12:21:46;101058.25;;;35.21;33.60
43770;BME280;6597;52.218;9.882;2023-07-09T12:24:20;101057.63;;;35.32;32.47
43770;BME280;6597;52.218;9.882;2023-07-09T12:26:51;101052.84;;;35.47;33.69
43770;BME280;6597;52.218;9.882;2023-07-09T12:29:18;101047.16;;;35.36;33.65
43770;BME280;6597;52.218;9.882;2023-07-09T12:31:44;101051.59;;;35.50;33.25
43770;BME280;6597;52.218;9.882;2023-07-09T12:34:12;101041.47;;;35.70;32.70
43770;BME280;6597;52.218;9.882;2023-07-09T12:36:43;101046.34;;;35.88;33.38
43770;BME280;6597;52.218;9.882;2023-07-09T12:39:12;101043.16;;;35.91;33.26
43770;BME280;6597;52.218;9.882;2023-07-09T12:41:41;101033.53;;;35.82;33.08
43770;BME280;6597;52.218;9.882;2023-07-09T12:44:15;101035.59;;;35.67;33.44
43770;BME280;6597;52.218;9.882;2023-07-09T12:46:43;101036.66;;;35.66;34.56
43770;BME280;6597;52.218;9.882;2023-07-09T12:49:21;101029.50;;;35.78;33.56
43770;BME280;6597;52.218;9.882;2023-07-09T12:51:48;101027.22;;;35.88;32.77
43770;BME280;6597;52.218;9.882;2023-07-09T12:54:16;101028.47;;;35.85;34.28
43770;BME280;6597;52.218;9.882;2023-07-09T12:56:44;101020.28;;;35.85;32.57
43770;BME280;6597;52.218;9.882;2023-07-09T12:59:21;101024.69;;;35.87;32.22
43770;BME280;6597;52.218;9.882;2023-07-09T13:01:50;101027.84;;;35.83;33.06
43770;BME280;6597;52.218;9.882;2023-07-09T13:04:17;101022.75;;;36.00;33.30
43770;BME280;6597;52.218;9.882;2023-07-09T13:06:44;101012.63;;;36.21;31.53
43770;BME280;6597;52.218;9.882;2023-07-09T13:09:18;101013.03;;;36.31;31.65